Time;durP1;ratioP1;P1;durP2;ratioP2;P2;SDS_P1;SDS_P2;PMS_P1;PMS_P2;Temp;Humidity;BMP_temperature;BMP_pressure;BME280_temperature;BME280_humidity;BME280_pressure;Samples;Min_cycle;Max_cycle;Signal;HPM_P1;HPM_P2
2023/05/18 00:00:13;;;;;;;14.50;4.20;;;;;;;7.41;100.00;102719.00;5247076;28;20098;-70
2023/05/18 00:02:47;;;;;;;12.27;4.13;;;;;;;7.41;100.00;102724.34;5247354;28;20068;-70
2023/05/18 00:05:17;;;;;;;17.65;4.97;;;;;;;7.33;100.00;102719.53;5247021;28;20032;-70
2023/05/18 00:07:48;;;;;;;18.27;4.38;;;;;;;7.30;100.00;102709.03;5246222;28;20082;-70
2023/05/18 00:10:18;;;;;;;16.02;4.78;;;;;;;7.30;100.00;102717.03;5246901;28;20031;-70
2023/05/18 00:12:49;;;;;;;13.48;4.60;;;;;;;7.30;100.00;102719.72;5244538;28;20056;-70
2023/05/18 00:15:20;;;;;;;18.45;4.85;;;;;;;7.32;100.00;102719.59;5235384;28;20032;-70
2023/05/18 00:17:52;;;;;;;12.45;4.78;;;;;;;7.33;100.00;102714.19;5242947;28;20035;-70
2023/05/18 00:20:25;;;;;;;20.65;4.35;;;;;;;7.28;100.00;102721.63;5236307;28;20146;-70
2023/05/18 00:22:55;;;;;;;18.20;4.70;;;;;;;7.29;100.00;102718.00;5246465;28;20023;-70
2023/05/18 00:25:26;;;;;;;10.13;4.43;;;;;;;7.26;100.00;102712.84;5246610;28;20465;-70
2023/05/18 00:27:56;;;;;;;13.77;4.40;;;;;;;7.22;100.00;102720.19;5225729;28;20021;-70
2023/05/18 00:30:27;;;;;;;12.60;4.10;;;;;;;7.20;100.00;102713.25;5239212;28;20444;-70
2023/05/18 00:32:58;;;;;;;17.88;4.47;;;;;;;7.18;100.00;102716.03;5246219;28;20473;-70
2023/05/18 00:35:28;;;;;;;20.58;5.05;;;;;;;7.19;100.00;102715.06;5231660;28;20051;-70
2023/05/18 00:37:59;;;;;;;17.48;4.65;;;;;;;7.18;100.00;102717.84;5234040;28;20541;-70
2023/05/18 00:40:29;;;;;;;14.13;5.50;;;;;;;7.13;100.00;102717.25;5238450;28;20025;-70
2023/05/18 00:43:00;;;;;;;12.02;4.00;;;;;;;7.10;100.00;102712.13;5236678;28;20047;-70
2023/05/18 00:45:31;;;;;;;12.85;4.55;;;;;;;7.04;100.00;102713.38;5242132;28;20028;-70
2023/05/18 00:48:01;;;;;;;18.48;4.78;;;;;;;7.02;100.00;102709.94;5245746;28;20440;-70
2023/05/18 00:50:32;;;;;;;17.48;5.45;;;;;;;6.99;100.00;102710.16;5227245;28;20104;-70
2023/05/18 00:53:03;;;;;;;19.25;4.68;;;;;;;6.98;100.00;102713.78;5233759;28;20056;-70
2023/05/18 00:55:33;;;;;;;19.17;5.00;;;;;;;6.97;100.00;102714.72;5230909;28;20028;-70
2023/05/18 00:58:04;;;;;;;17.40;4.50;;;;;;;6.90;100.00;102711.59;5244980;28;20031;-70
2023/05/18 01:00:36;;;;;;;12.25;4.03;;;;;;;6.85;100.00;102708.34;5233102;28;20029;-70
2023/05/18 01:03:09;;;;;;;12.38;4.15;;;;;;;6.85;100.00;102704.84;5244221;28;20024;-70
2023/05/18 01:05:41;;;;;;;16.63;5.15;;;;;;;6.82;100.00;102713.88;5224686;28;20432;-70
2023/05/18 01:08:11;;;;;;;15.63;4.55;;;;;;;6.76;100.00;102706.25;5241191;28;20394;-70
2023/05/18 01:10:42;;;;;;;17.08;5.25;;;;;;;6.75;100.00;102715.22;5245650;28;20020;-70
2023/05/18 01:13:22;;;;;;;22.20;4.68;;;;;;;6.74;100.00;102718.84;5241183;28;20032;-70
2023/05/18 01:16:00;;;;;;;22.63;5.15;;;;;;;6.71;100.00;102711.03;5223943;28;20442;-70
2023/05/18 01:18:42;;;;;;;20.08;5.35;;;;;;;6.69;100.00;102720.94;5224344;28;20025;-70
2023/05/18 01:21:50;;;;;;;14.63;4.60;;;;;;;6.66;100.00;102721.13;5237732;28;20111;-70
2023/05/18 01:24:43;;;;;;;20.13;5.38;;;;;;;6.61;100.00;102715.22;5231540;28;20393;-70
2023/05/18 01:27:16;;;;;;;17.77;5.00;;;;;;;6.60;100.00;102717.03;5244603;28;20025;-70
2023/05/18 01:29:48;;;;;;;19.90;5.10;;;;;;;6.59;100.00;102717.13;5237617;28;20052;-70
2023/05/18 01:32:20;;;;;;;12.18;4.03;;;;;;;6.60;100.00;102721.50;5237635;28;20107;-70
2023/05/18 01:34:51;;;;;;;11.05;3.95;;;;;;;6.58;100.00;102720.75;5224227;28;20167;-70
2023/05/18 01:37:21;;;;;;;17.17;4.80;;;;;;;6.55;100.00;102723.59;5240098;28;20534;-70
2023/05/18 01:39:51;;;;;;;21.13;6.07;;;;;;;6.58;100.00;102728.75;5238487;28;20378;-70
2023/05/18 01:42:26;;;;;;;15.75;4.15;;;;;;;6.55;100.00;102726.25;5244949;28;20468;-70
2023/05/18 01:45:02;;;;;;;24.45;5.20;;;;;;;6.50;100.00;102723.88;5244927;28;20419;-70
2023/05/18 01:47:41;;;;;;;10.07;4.72;;;;;;;6.47;100.00;102722.25;5244222;28;20029;-70
2023/05/18 01:50:30;;;;;;;16.50;4.88;;;;;;;6.48;100.00;102726.66;5244831;28;20025;-70
2023/05/18 01:53:07;;;;;;;17.13;4.00;;;;;;;6.47;100.00;102724.06;5241041;28;20505;-70
2023/05/18 01:55:40;;;;;;;16.17;4.28;;;;;;;6.53;100.00;102728.19;5243604;28;20016;-70
2023/05/18 01:58:12;;;;;;;14.43;4.70;;;;;;;6.47;100.00;102724.91;5243376;28;20500;-70
2023/05/18 02:00:50;;;;;;;13.07;4.30;;;;;;;6.43;100.00;102728.75;5233319;28;20035;-70
2023/05/18 02:03:20;;;;;;;12.38;4.75;;;;;;;6.39;100.00;102721.03;5244518;28;20021;-70
2023/05/18 02:05:52;;;;;;;9.48;4.05;;;;;;;6.37;100.00;102728.22;5244325;28;20485;-70
2023/05/18 02:08:23;;;;;;;14.18;4.25;;;;;;;6.36;100.00;102722.06;5230769;28;20032;-70
2023/05/18 02:10:53;;;;;;;23.95;5.38;;;;;;;6.34;100.00;102723.09;5244286;28;20029;-70
2023/05/18 02:13:24;;;;;;;13.05;4.72;;;;;;;6.30;100.00;102711.75;5244469;28;20028;-70
2023/05/18 02:15:55;;;;;;;17.48;5.80;;;;;;;6.33;100.00;102718.75;5243401;28;20410;-70
2023/05/18 02:18:26;;;;;;;18.30;5.28;;;;;;;6.31;100.00;102715.28;5226843;28;20028;-70
2023/05/18 02:20:58;;;;;;;15.35;4.70;;;;;;;6.26;100.00;102714.72;5238277;28;20141;-70
2023/05/18 02:23:29;;;;;;;13.13;5.13;;;;;;;6.21;100.00;102707.84;5223493;28;20021;-70
2023/05/18 02:25:59;;;;;;;18.95;4.63;;;;;;;6.20;100.00;102715.94;5239575;28;20028;-70
2023/05/18 02:28:30;;;;;;;15.23;4.72;;;;;;;6.18;100.00;102710.72;5233462;28;20496;-69
2023/05/18 02:31:16;;;;;;;17.30;4.28;;;;;;;6.17;100.00;102702.78;5228236;28;20471;-71
2023/05/18 02:33:46;;;;;;;10.90;3.92;;;;;;;6.16;100.00;102714.41;5230330;28;20494;-71
2023/05/18 02:36:17;;;;;;;10.75;4.68;;;;;;;6.14;100.00;102709.19;5243482;28;20070;-70
2023/05/18 02:38:47;;;;;;;17.58;5.07;;;;;;;6.13;100.00;102707.47;5242435;28;20069;-71
2023/05/18 02:41:18;;;;;;;21.00;4.97;;;;;;;6.11;100.00;102711.16;5239945;28;20020;-70
2023/05/18 02:43:49;;;;;;;12.68;4.90;;;;;;;6.09;100.00;102710.41;5240889;28;20025;-70
2023/05/18 02:46:20;;;;;;;26.65;5.03;;;;;;;6.03;100.00;102706.31;5222760;28;20390;-70
2023/05/18 02:48:50;;;;;;;12.30;4.10;;;;;;;6.00;100.00;102703.81;5229229;28;20535;-70
2023/05/18 02:51:21;;;;;;;15.38;4.60;;;;;;;5.96;100.00;102697.78;5245035;28;20181;-70
2023/05/18 02:53:52;;;;;;;20.85;4.55;;;;;;;5.92;100.00;102701.63;5237464;28;20059;-70
2023/05/18 02:56:23;;;;;;;13.52;4.78;;;;;;;5.91;100.00;102705.19;5239381;28;20021;-70
2023/05/18 02:58:56;;;;;;;19.77;4.75;;;;;;;5.91;100.00;102698.97;5248481;28;20105;-70
2023/05/18 03:01:27;;;;;;;12.15;4.72;;;;;;;5.90;100.00;102705.28;5247097;28;20020;-70
2023/05/18 03:03:57;;;;;;;17.42;5.18;;;;;;;5.90;100.00;102702.59;5236272;28;20054;-70
2023/05/18 03:06:29;;;;;;;11.80;4.95;;;;;;;5.90;100.00;102702.59;5244991;28;20024;-70
2023/05/18 03:08:59;;;;;;;14.63;5.28;;;;;;;5.86;100.00;102706.38;5227016;28;20060;-71
2023/05/18 03:11:30;;;;;;;15.20;4.60;;;;;;;5.87;100.00;102703.66;5244679;28;20132;-70
2023/05/18 03:14:01;;;;;;;12.73;4.55;;;;;;;5.84;100.00;102702.97;5248073;28;20025;-70
2023/05/18 03:16:31;;;;;;;18.40;5.82;;;;;;;5.82;100.00;102710.19;5247031;28;20065;-71
2023/05/18 03:19:02;;;;;;;14.13;4.90;;;;;;;5.81;100.00;102706.66;5247841;28;20059;-70
2023/05/18 03:21:34;;;;;;;20.70;5.18;;;;;;;5.75;100.00;102708.84;5240226;28;20017;-70
2023/05/18 03:24:05;;;;;;;13.48;4.75;;;;;;;5.70;100.00;102701.97;5233364;28;20034;-70
2023/05/18 03:26:37;;;;;;;14.82;5.03;;;;;;;5.70;100.00;102709.09;5234660;28;20021;-71
2023/05/18 03:29:08;;;;;;;28.80;6.15;;;;;;;5.69;100.00;102710.06;5247443;28;20677;-71
2023/05/18 03:31:39;;;;;;;17.30;5.03;;;;;;;5.70;100.00;102706.44;5247552;28;20488;-70
2023/05/18 03:34:09;;;;;;;20.17;5.68;;;;;;;5.69;100.00;102715.38;5243396;28;20028;-70
2023/05/18 03:36:41;;;;;;;19.73;5.32;;;;;;;5.66;100.00;102716.41;5237166;28;20067;-70
2023/05/18 03:39:11;;;;;;;19.50;5.28;;;;;;;5.62;100.00;102708.66;5247323;28;20024;-70
2023/05/18 03:41:42;;;;;;;25.05;5.63;;;;;;;5.62;100.00;102714.88;5240038;28;20070;-70
2023/05/18 03:44:12;;;;;;;22.77;5.70;;;;;;;5.61;100.00;102717.63;5247064;28;20038;-70
2023/05/18 03:46:43;;;;;;;17.10;5.45;;;;;;;5.58;100.00;102715.16;5246191;28;20067;-70
2023/05/18 03:49:13;;;;;;;13.55;4.75;;;;;;;5.54;100.00;102713.59;5247708;28;20063;-70
2023/05/18 03:51:44;;;;;;;27.58;5.50;;;;;;;5.50;100.00;102718.22;5247278;28;20054;-70
2023/05/18 03:54:15;;;;;;;12.18;4.90;;;;;;;5.48;100.00;102721.94;5236453;28;20023;-70
2023/05/18 03:56:46;;;;;;;14.82;4.95;;;;;;;5.48;100.00;102725.47;5238250;28;20535;-70
2023/05/18 03:59:16;;;;;;;14.85;4.57;;;;;;;5.44;100.00;102724.78;5236941;28;20067;-71
2023/05/18 04:01:47;;;;;;;14.15;4.63;;;;;;;5.43;100.00;102720.41;5233375;28;20103;-71
2023/05/18 04:04:22;;;;;;;15.82;5.15;;;;;;;5.42;100.00;102726.69;5247192;28;20028;-71
2023/05/18 04:06:52;;;;;;;13.30;4.28;;;;;;;5.47;100.00;102726.38;5246224;28;20485;-71
2023/05/18 04:09:23;;;;;;;11.88;4.53;;;;;;;5.49;100.00;102734.31;5246282;28;20093;-70
2023/05/18 04:11:54;;;;;;;14.80;6.03;;;;;;;5.50;100.00;102736.00;5246606;28;20020;-70
2023/05/18 04:14:26;;;;;;;15.73;6.47;;;;;;;5.49;100.00;102734.31;5246850;28;20388;-70
2023/05/18 04:17:03;;;;;;;15.80;5.05;;;;;;;5.48;100.00;102735.25;5237230;28;20111;-70
2023/05/18 04:19:34;;;;;;;15.80;5.22;;;;;;;5.43;100.00;102731.03;5229999;28;20021;-70
2023/05/18 04:22:06;;;;;;;15.45;5.22;;;;;;;5.43;100.00;102723.06;5235099;28;20017;-71
2023/05/18 04:24:40;;;;;;;20.90;6.53;;;;;;;5.46;100.00;102725.53;5244268;28;20466;-70
2023/05/18 04:27:11;;;;;;;19.08;5.15;;;;;;;5.50;100.00;102733.34;5246124;28;20039;-71
2023/05/18 04:29:42;;;;;;;15.95;5.38;;;;;;;5.53;100.00;102731.38;5246301;28;20028;-71
2023/05/18 04:32:13;;;;;;;14.93;5.22;;;;;;;5.55;100.00;102737.47;5245961;28;20062;-70
2023/05/18 04:34:48;;;;;;;14.20;5.80;;;;;;;5.58;100.00;102736.44;5246665;28;20032;-71
2023/05/18 04:37:18;;;;;;;30.30;6.18;;;;;;;5.58;100.00;102737.31;5245894;28;20029;-71
2023/05/18 04:39:50;;;;;;;14.40;5.70;;;;;;;5.61;100.00;102749.56;5241644;28;20500;-71
2023/05/18 04:42:21;;;;;;;10.90;5.07;;;;;;;5.65;100.00;102745.78;5232847;28;20031;-71
2023/05/18 04:44:53;;;;;;;16.90;5.78;;;;;;;5.68;100.00;102746.47;5234851;28;20421;-71
2023/05/18 04:47:23;;;;;;;20.33;6.30;;;;;;;5.76;100.00;102747.81;5232042;28;20035;-70
2023/05/18 04:49:54;;;;;;;25.08;5.47;;;;;;;5.81;100.00;102748.41;5246097;28;20209;-71
2023/05/18 04:52:25;;;;;;;15.48;5.35;;;;;;;5.85;100.00;102750.81;5239561;28;20029;-70
2023/05/18 04:54:55;;;;;;;12.52;5.32;;;;;;;5.91;100.00;102752.25;5225284;28;20025;-71
2023/05/18 04:57:26;;;;;;;16.58;4.93;;;;;;;5.97;100.00;102758.16;5244937;28;20313;-71
2023/05/18 04:59:57;;;;;;;18.50;6.07;;;;;;;6.07;100.00;102762.91;5245787;28;20016;-71
2023/05/18 05:02:27;;;;;;;19.60;5.60;;;;;;;6.13;100.00;102752.75;5246252;28;20104;-71
2023/05/18 05:04:58;;;;;;;15.52;4.95;;;;;;;6.18;100.00;102755.16;5245742;28;20078;-71
2023/05/18 05:07:28;;;;;;;19.00;5.97;;;;;;;6.24;100.00;102754.78;5245101;28;20017;-71
2023/05/18 05:09:59;;;;;;;11.18;5.38;;;;;;;6.31;100.00;102749.94;5245083;28;20344;-70
2023/05/18 05:12:29;;;;;;;17.77;5.25;;;;;;;6.36;100.00;102748.72;5245749;28;20043;-70
2023/05/18 05:14:59;;;;;;;13.10;5.97;;;;;;;6.45;100.00;102752.63;5244961;28;20527;-71
2023/05/18 05:17:30;;;;;;;17.70;6.10;;;;;;;6.57;100.00;102751.03;5244977;28;20024;-70
2023/05/18 05:20:00;;;;;;;19.92;5.60;;;;;;;6.64;100.00;102755.03;5241425;28;20021;-72
2023/05/18 05:22:31;;;;;;;10.60;5.70;;;;;;;6.72;100.00;102761.59;5245100;28;20075;-71
2023/05/18 05:25:01;;;;;;;18.65;5.43;;;;;;;6.79;100.00;102750.56;5245272;28;20029;-71
2023/05/18 05:27:32;;;;;;;18.83;5.60;;;;;;;6.87;100.00;102750.94;5244947;28;20538;-71
2023/05/18 05:30:03;;;;;;;16.05;5.22;;;;;;;6.94;100.00;102761.16;5245259;28;20035;-71
2023/05/18 05:32:34;;;;;;;17.42;5.90;;;;;;;7.05;100.00;102757.78;5244757;28;20025;-71
2023/05/18 05:35:06;;;;;;;15.18;5.30;;;;;;;7.15;100.00;102763.41;5233841;28;20402;-71
2023/05/18 05:37:36;;;;;;;18.10;5.97;;;;;;;7.27;100.00;102755.47;5242739;28;20016;-71
2023/05/18 05:40:08;;;;;;;23.55;6.13;;;;;;;7.34;100.00;102755.94;5238212;28;20532;-71
2023/05/18 05:42:40;;;;;;;18.25;6.15;;;;;;;7.42;100.00;102753.63;5244456;28;20025;-71
2023/05/18 05:45:11;;;;;;;12.35;5.57;;;;;;;7.50;100.00;102748.66;5226866;28;20040;-70
2023/05/18 05:47:41;;;;;;;19.23;6.80;;;;;;;7.61;100.00;102753.28;5244439;28;20458;-71
2023/05/18 05:50:12;;;;;;;17.08;6.15;;;;;;;7.75;100.00;102752.38;5245027;28;20051;-71
2023/05/18 05:52:42;;;;;;;20.75;5.85;;;;;;;7.92;100.00;102752.09;5235545;28;20029;-71
2023/05/18 05:55:12;;;;;;;14.68;5.70;;;;;;;8.09;100.00;102751.00;5244407;28;20029;-70
2023/05/18 05:57:43;;;;;;;16.55;5.30;;;;;;;8.24;100.00;102749.94;5244113;28;20100;-71
2023/05/18 06:00:14;;;;;;;18.95;7.07;;;;;;;8.38;100.00;102748.16;5244899;28;20017;-71
2023/05/18 06:02:45;;;;;;;18.10;5.45;;;;;;;8.53;100.00;102747.09;5245069;28;20028;-70
2023/05/18 06:05:15;;;;;;;21.55;5.82;;;;;;;8.71;100.00;102744.97;5244510;28;20432;-71
2023/05/18 06:07:46;;;;;;;15.02;5.60;;;;;;;8.81;100.00;102743.34;5244299;28;20024;-71
2023/05/18 06:10:17;;;;;;;16.17;5.57;;;;;;;8.92;100.00;102748.78;5237331;28;20033;-71
2023/05/18 06:12:48;;;;;;;14.40;5.97;;;;;;;9.02;100.00;102743.66;5236908;28;20021;-71
2023/05/18 06:15:18;;;;;;;11.65;4.75;;;;;;;9.13;100.00;102751.75;5231794;28;20028;-72
2023/05/18 06:17:49;;;;;;;21.23;5.75;;;;;;;9.21;100.00;102754.75;5243921;28;20052;-71
2023/05/18 06:20:19;;;;;;;18.20;5.97;;;;;;;9.30;100.00;102763.94;5238200;28;20435;-71
2023/05/18 06:22:50;;;;;;;15.32;5.90;;;;;;;9.37;100.00;102765.19;5236419;28;20036;-71
2023/05/18 06:25:21;;;;;;;16.13;5.68;;;;;;;9.49;100.00;102764.31;5223157;28;20039;-71
2023/05/18 06:27:51;;;;;;;19.58;5.68;;;;;;;9.51;100.00;102764.19;5222966;28;20021;-71
2023/05/18 06:30:22;;;;;;;19.08;5.72;;;;;;;9.69;100.00;102765.53;5223722;28;20531;-71
2023/05/18 06:32:52;;;;;;;15.65;5.57;;;;;;;9.92;100.00;102769.16;5243157;28;20032;-71
2023/05/18 06:35:23;;;;;;;27.90;6.15;;;;;;;10.10;100.00;102777.66;5243754;28;20037;-71
2023/05/18 06:37:54;;;;;;;16.30;5.43;;;;;;;10.17;100.00;102776.19;5244238;28;20059;-71
2023/05/18 06:40:24;;;;;;;11.50;5.10;;;;;;;10.09;100.00;102774.13;5234794;28;20045;-71
2023/05/18 06:42:55;;;;;;;27.35;5.65;;;;;;;10.09;100.00;102779.47;5224432;28;20025;-71
2023/05/18 06:45:26;;;;;;;21.05;5.80;;;;;;;10.10;100.00;102775.81;5224492;28;20068;-71
2023/05/18 06:47:56;;;;;;;22.67;6.75;;;;;;;10.16;100.00;102777.19;5224880;28;20035;-71
2023/05/18 06:50:27;;;;;;;24.42;6.40;;;;;;;10.33;100.00;102773.22;5237567;28;20589;-71
2023/05/18 06:52:57;;;;;;;17.10;6.38;;;;;;;10.54;100.00;102776.06;5226900;28;20378;-72
2023/05/18 06:55:28;;;;;;;16.17;6.45;;;;;;;10.91;100.00;102782.13;5226280;28;20029;-71
2023/05/18 06:57:58;;;;;;;16.02;5.68;;;;;;;11.25;100.00;102780.28;5223428;28;20032;-71
2023/05/18 07:00:29;;;;;;;16.08;6.13;;;;;;;11.62;100.00;102775.44;5225345;28;20456;-72
2023/05/18 07:03:00;;;;;;;18.40;5.97;;;;;;;11.99;100.00;102776.94;5224646;28;20025;-72
2023/05/18 07:05:31;;;;;;;13.98;4.63;;;;;;;12.44;100.00;102777.56;5226121;28;20165;-72
2023/05/18 07:08:03;;;;;;;15.18;5.82;;;;;;;12.75;100.00;102778.50;5226110;28;20297;-72
2023/05/18 07:10:34;;;;;;;20.77;5.78;;;;;;;13.10;100.00;102775.38;5224888;28;20032;-72
2023/05/18 07:13:05;;;;;;;11.75;4.97;;;;;;;13.72;100.00;102781.53;5228162;28;20036;-72
2023/05/18 07:15:35;;;;;;;17.13;5.75;;;;;;;13.92;100.00;102794.03;5233038;28;20116;-72
2023/05/18 07:18:06;;;;;;;17.98;5.63;;;;;;;14.23;100.00;102786.66;5226212;28;20029;-72
2023/05/18 07:20:36;;;;;;;18.58;6.30;;;;;;;14.54;100.00;102794.59;5234999;28;20021;-72
2023/05/18 07:23:07;;;;;;;11.73;5.32;;;;;;;14.80;100.00;102789.41;5229014;28;20515;-72
2023/05/18 07:25:37;;;;;;;14.15;5.53;;;;;;;14.99;100.00;102794.75;5243298;28;20030;-72
2023/05/18 07:28:08;;;;;;;17.67;5.95;;;;;;;15.13;100.00;102793.44;5243659;28;20059;-72
2023/05/18 07:30:38;;;;;;;14.23;4.50;;;;;;;15.40;100.00;102791.72;5243636;28;20070;-72
2023/05/18 07:33:09;;;;;;;16.58;5.30;;;;;;;15.79;100.00;102793.22;5243631;28;20444;-72
2023/05/18 07:35:39;;;;;;;11.43;4.97;;;;;;;16.15;100.00;102793.22;5242727;28;20035;-72
2023/05/18 07:38:10;;;;;;;18.40;5.93;;;;;;;16.76;100.00;102788.78;5245685;28;20240;-73
2023/05/18 07:40:40;;;;;;;14.45;5.45;;;;;;;17.16;100.00;102798.16;5238818;28;21610;-72
2023/05/18 07:43:11;;;;;;;11.45;4.68;;;;;;;17.34;100.00;102788.94;5247856;28;20021;-72
2023/05/18 07:45:41;;;;;;;11.90;4.53;;;;;;;18.19;100.00;102801.53;5246752;28;20032;-74
2023/05/18 07:48:12;;;;;;;12.68;4.43;;;;;;;17.78;100.00;102796.91;5247508;28;20373;-73
2023/05/18 07:50:42;;;;;;;17.50;4.95;;;;;;;17.63;100.00;102800.38;5234053;28;20032;-73
2023/05/18 07:53:13;;;;;;;10.88;4.57;;;;;;;18.19;100.00;102804.25;5241955;28;20029;-73
2023/05/18 07:55:44;;;;;;;12.15;4.88;;;;;;;17.76;100.00;102788.03;5245625;28;20025;-73
2023/05/18 07:58:14;;;;;;;11.98;4.80;;;;;;;17.91;100.00;102793.66;5229481;28;20067;-73
2023/05/18 08:00:45;;;;;;;14.77;4.80;;;;;;;18.25;100.00;102798.13;5246884;28;20477;-73
2023/05/18 08:03:17;;;;;;;12.10;4.53;;;;;;;18.63;100.00;102796.56;5247121;28;20020;-73
2023/05/18 08:05:47;;;;;;;14.30;5.35;;;;;;;18.97;100.00;102801.78;5246548;28;20512;-73
2023/05/18 08:08:19;;;;;;;14.23;5.15;;;;;;;18.87;100.00;102801.13;5246852;28;20025;-73
2023/05/18 08:10:50;;;;;;;10.32;5.10;;;;;;;19.13;100.00;102792.75;5247596;28;20028;-73
2023/05/18 08:13:21;;;;;;;12.32;5.32;;;;;;;19.57;100.00;102797.63;5246929;28;20028;-73
2023/05/18 08:15:51;;;;;;;9.88;4.57;;;;;;;19.38;100.00;102791.59;5246454;28;20035;-73
2023/05/18 08:18:22;;;;;;;11.65;4.82;;;;;;;19.17;100.00;102791.34;5246702;28;20078;-73
2023/05/18 08:20:52;;;;;;;14.38;4.88;;;;;;;19.31;100.00;102787.88;5246420;28;20107;-73
2023/05/18 08:23:23;;;;;;;15.70;5.47;;;;;;;18.85;100.00;102790.44;5246721;28;20041;-73
2023/05/18 08:25:55;;;;;;;11.48;4.60;;;;;;;18.89;100.00;102788.22;5246224;28;20036;-73
2023/05/18 08:28:26;;;;;;;16.13;4.97;;;;;;;19.20;100.00;102788.28;5246823;28;20390;-73
2023/05/18 08:30:56;;;;;;;14.57;5.60;;;;;;;18.62;100.00;102787.56;5246573;28;20017;-73
2023/05/18 08:33:27;;;;;;;10.68;4.20;;;;;;;18.58;100.00;102788.94;5246809;28;20054;-73
2023/05/18 08:35:57;;;;;;;16.10;4.85;;;;;;;18.87;100.00;102774.78;5246236;28;20020;-73
2023/05/18 08:38:28;;;;;;;11.23;4.13;;;;;;;18.94;100.00;102774.94;5246537;28;20032;-73
2023/05/18 08:41:21;;;;;;;11.63;4.32;;;;;;;19.13;100.00;102779.13;5239246;28;20040;-73
2023/05/18 08:43:58;;;;;;;15.52;4.80;;;;;;;19.30;100.00;102775.31;5246522;28;20020;-73
2023/05/18 08:46:33;;;;;;;10.30;4.63;;;;;;;19.75;100.00;102771.00;5227739;28;20083;-73
2023/05/18 08:49:05;;;;;;;15.68;4.32;;;;;;;20.36;96.22;102774.59;5245626;28;20024;-73
2023/05/18 08:51:36;;;;;;;11.30;4.30;;;;;;;20.38;100.00;102775.28;5246244;28;20029;-73
2023/05/18 08:54:09;;;;;;;13.48;4.13;;;;;;;20.31;100.00;102768.00;5241573;28;20024;-73
2023/05/18 08:56:40;;;;;;;7.90;3.38;;;;;;;20.39;100.00;102771.50;5245523;28;20035;-73
2023/05/18 08:59:13;;;;;;;13.85;4.65;;;;;;;21.04;86.76;102774.63;5246612;28;20024;-73
2023/05/18 09:01:44;;;;;;;11.20;3.97;;;;;;;20.68;91.45;102769.88;5245995;28;20103;-73
2023/05/18 09:04:15;;;;;;;10.50;3.78;;;;;;;21.00;84.88;102773.28;5234694;28;20108;-74
2023/05/18 09:06:47;;;;;;;7.47;3.45;;;;;;;20.95;96.03;102776.59;5243787;28;20396;-73
2023/05/18 09:09:20;;;;;;;10.90;3.63;;;;;;;21.37;87.27;102773.16;5245406;28;20025;-73
2023/05/18 09:11:51;;;;;;;11.52;3.65;;;;;;;21.35;83.89;102774.41;5245865;28;20067;-73
2023/05/18 09:14:24;;;;;;;12.23;3.88;;;;;;;21.51;74.19;102770.59;5245469;28;20052;-73
2023/05/18 09:16:55;;;;;;;11.65;3.45;;;;;;;21.34;75.41;102779.03;5227118;28;20028;-73
2023/05/18 09:19:25;;;;;;;14.18;3.55;;;;;;;20.99;67.81;102777.06;5245330;28;20021;-73
2023/05/18 09:21:56;;;;;;;14.48;3.63;;;;;;;20.55;60.38;102777.88;5244677;28;20025;-73
2023/05/18 09:24:27;;;;;;;13.90;3.58;;;;;;;19.08;72.36;102771.50;5231953;28;20500;-73
2023/05/18 09:26:57;;;;;;;11.05;3.63;;;;;;;19.18;83.67;102770.41;5244842;28;20099;-73
2023/05/18 09:29:28;;;;;;;13.50;3.47;;;;;;;19.57;76.45;102764.94;5245170;28;20035;-73
2023/05/18 09:32:04;;;;;;;11.57;3.40;;;;;;;19.47;77.55;102765.19;5233332;28;20029;-73
2023/05/18 09:34:52;;;;;;;12.40;3.45;;;;;;;19.69;69.74;102769.00;5225791;28;20028;-73
2023/05/18 09:37:23;;;;;;;11.07;3.67;;;;;;;19.95;72.65;102770.53;5225619;28;20031;-73
2023/05/18 09:40:06;;;;;;;12.43;4.07;;;;;;;20.05;71.31;102760.22;5212237;28;20021;-73
2023/05/18 09:42:39;;;;;;;15.13;4.45;;;;;;;19.65;73.82;102754.06;5227094;28;20021;-73
2023/05/18 09:45:24;;;;;;;16.23;3.97;;;;;;;19.50;72.21;102755.81;5219414;28;20032;-73
2023/05/18 09:47:55;;;;;;;13.48;3.80;;;;;;;19.83;80.80;102745.56;5235311;28;20100;-73
2023/05/18 09:50:26;;;;;;;12.38;4.30;;;;;;;20.02;73.80;102746.97;5225532;28;20032;-73
2023/05/18 09:52:56;;;;;;;13.50;4.28;;;;;;;20.04;71.81;102751.22;5224725;28;20111;-73
2023/05/18 09:55:27;;;;;;;19.25;4.80;;;;;;;20.42;75.86;102743.88;5224631;28;20579;-73
2023/05/18 09:57:57;;;;;;;14.15;4.63;;;;;;;20.24;80.55;102746.09;5224632;28;20025;-73
2023/05/18 10:00:28;;;;;;;15.95;5.00;;;;;;;19.86;93.63;102743.34;5225073;28;20615;-73
2023/05/18 10:02:59;;;;;;;13.25;4.80;;;;;;;20.02;87.72;102739.63;5224306;28;20025;-73
2023/05/18 10:05:32;;;;;;;15.27;4.45;;;;;;;19.91;76.04;102726.47;5224438;28;20036;-73
2023/05/18 10:08:04;;;;;;;14.25;4.90;;;;;;;19.26;87.52;102730.44;5207071;28;20035;-75
2023/05/18 10:10:37;;;;;;;11.38;4.00;;;;;;;19.14;86.35;102734.59;5224553;28;20549;-73
2023/05/18 10:13:10;;;;;;;14.10;4.75;;;;;;;19.66;92.93;102729.34;5225135;28;20032;-73
2023/05/18 10:16:01;;;;;;;15.02;4.57;;;;;;;19.87;81.46;102733.28;5223998;28;20032;-73
2023/05/18 10:18:35;;;;;;;11.70;4.07;;;;;;;19.78;74.15;102734.38;5224700;28;20394;-73
2023/05/18 10:21:07;;;;;;;12.40;4.03;;;;;;;19.44;70.97;102729.31;5236494;28;20112;-73
2023/05/18 10:23:39;;;;;;;14.23;3.42;;;;;;;19.51;77.07;102733.00;5233700;28;20270;-73
2023/05/18 10:26:11;;;;;;;7.18;3.80;;;;;;;19.30;71.93;102731.78;5243424;28;20032;-73
2023/05/18 10:28:46;;;;;;;19.67;4.63;;;;;;;19.53;75.73;102729.09;5244063;28;20032;-73
2023/05/18 10:31:18;;;;;;;14.00;4.32;;;;;;;19.88;71.10;102729.53;5226257;28;20031;-73
2023/05/18 10:33:51;;;;;;;12.20;5.10;;;;;;;20.01;78.08;102737.09;5243954;28;20028;-73
2023/05/18 10:36:24;;;;;;;12.48;4.43;;;;;;;20.15;70.08;102731.69;5243493;28;20028;-73
2023/05/18 10:38:58;;;;;;;13.02;4.82;;;;;;;19.80;64.59;102730.47;5243404;28;20394;-73
2023/05/18 10:41:31;;;;;;;15.13;4.70;;;;;;;19.54;68.40;102721.78;5225986;28;20031;-73
2023/05/18 10:44:02;;;;;;;9.75;4.10;;;;;;;19.39;64.43;102730.69;5241143;28;20236;-73
2023/05/18 10:46:35;;;;;;;12.20;4.32;;;;;;;19.29;70.71;102721.91;5243459;28;20094;-73
2023/05/18 10:49:12;;;;;;;9.85;4.75;;;;;;;19.06;67.50;102721.00;5244316;28;20462;-73
2023/05/18 10:51:46;;;;;;;15.65;5.50;;;;;;;19.00;81.04;102708.97;5243784;28;20028;-73
2023/05/18 10:54:17;;;;;;;11.63;5.13;;;;;;;18.96;78.71;102715.78;5238326;28;20036;-73
2023/05/18 10:56:50;;;;;;;15.10;5.38;;;;;;;18.81;77.51;102707.50;5243189;28;20548;-73
2023/05/18 10:59:22;;;;;;;10.73;5.20;;;;;;;18.56;79.96;102703.97;5244167;28;20123;-73
2023/05/18 11:01:54;;;;;;;12.52;4.93;;;;;;;18.58;76.13;102706.56;5243766;28;20031;-73
2023/05/18 11:04:26;;;;;;;13.13;5.65;;;;;;;18.85;81.41;102697.13;5244113;28;20385;-73
2023/05/18 11:06:58;;;;;;;16.45;6.15;;;;;;;19.20;92.62;102687.59;5243433;28;20025;-73
2023/05/18 11:09:29;;;;;;;15.20;5.55;;;;;;;19.61;85.25;102692.81;5230689;28;20029;-73
2023/05/18 11:12:00;;;;;;;12.82;5.13;;;;;;;19.53;82.22;102690.09;5243707;28;20056;-73
2023/05/18 11:14:31;;;;;;;13.23;5.00;;;;;;;19.52;84.14;102694.72;5247457;28;20066;-73
2023/05/18 11:17:21;;;;;;;17.35;5.43;;;;;;;19.65;84.64;102684.09;5247527;28;20021;-73
2023/05/18 11:22:50;;;;;;;11.95;5.03;;;;;;;19.23;74.39;102675.50;5247832;28;20436;-73
2023/05/18 11:25:36;;;;;;;10.18;4.85;;;;;;;19.30;76.68;102676.50;5247591;28;20040;-73
2023/05/18 11:28:09;;;;;;;14.32;4.97;;;;;;;19.21;85.25;102678.41;5247499;28;20048;-73
2023/05/18 11:30:40;;;;;;;16.58;5.07;;;;;;;18.99;76.86;102671.91;5246759;28;20442;-73
2023/05/18 11:33:13;;;;;;;19.08;5.90;;;;;;;19.14;82.72;102672.84;5216938;28;20067;-73
2023/05/18 11:39:06;;;;;;;10.27;4.68;;;;;;;19.24;91.13;102675.34;5247346;28;20027;-73
2023/05/18 11:41:40;;;;;;;14.85;5.00;;;;;;;18.95;80.29;102667.00;5238629;28;20028;-73
2023/05/18 11:44:11;;;;;;;12.93;4.88;;;;;;;18.86;70.86;102669.75;5247105;28;20175;-73